sensor_id;sensor_type;location;lat;lon;timestamp;pressure;altitude;pressure_sealevel;temperature;humidity
13709;BME280;54933;51.908;7.730;2023-09-19T00:02:17;100067.28;;;24.10;91.47
13709;BME280;54933;51.908;7.730;2023-09-19T00:04:42;100060.25;;;24.09;91.36
13709;BME280;54933;51.908;7.730;2023-09-19T00:07:08;100069.19;;;24.10;91.46
13709;BME280;54933;51.908;7.730;2023-09-19T00:09:34;100069.19;;;24.10;91.45
13709;BME280;54933;51.908;7.730;2023-09-19T00:12:05;100068.38;;;24.09;91.32
13709;BME280;54933;51.908;7.730;2023-09-19T00:14:30;100078.16;;;24.10;91.45
13709;BME280;54933;51.908;7.730;2023-09-19T00:16:59;100080.88;;;24.10;91.53
13709;BME280;54933;51.908;7.730;2023-09-19T00:19:26;100083.59;;;24.10;91.20
13709;BME280;54933;51.908;7.730;2023-09-19T00:21:51;100091.47;;;24.12;91.31
13709;BME280;54933;51.908;7.730;2023-09-19T00:24:18;100085.22;;;24.11;91.25
13709;BME280;54933;51.908;7.730;2023-09-19T00:26:44;100090.63;;;24.11;91.28
13709;BME280;54933;51.908;7.730;2023-09-19T00:29:11;100091.47;;;24.12;91.19
13709;BME280;54933;51.908;7.730;2023-09-19T00:31:38;100088.75;;;24.12;91.22
13709;BME280;54933;51.908;7.730;2023-09-19T00:34:03;100091.22;;;24.13;91.24
13709;BME280;54933;51.908;7.730;2023-09-19T00:36:29;100097.72;;;24.13;91.28
13709;BME280;54933;51.908;7.730;2023-09-19T00:38:54;100100.44;;;24.13;91.17
13709;BME280;54933;51.908;7.730;2023-09-19T00:41:20;100102.06;;;24.13;91.17
13709;BME280;54933;51.908;7.730;2023-09-19T00:43:46;100108.34;;;24.14;91.37
13709;BME280;54933;51.908;7.730;2023-09-19T00:46:12;100112.94;;;24.13;91.19
13709;BME280;54933;51.908;7.730;2023-09-19T00:48:41;100120.03;;;24.15;91.06
13709;BME280;54933;51.908;7.730;2023-09-19T00:51:08;100128.38;;;24.13;91.25
13709;BME280;54933;51.908;7.730;2023-09-19T00:53:34;100130.88;;;24.15;91.25
13709;BME280;54933;51.908;7.730;2023-09-19T00:55:59;100126.75;;;24.12;91.04
13709;BME280;54933;51.908;7.730;2023-09-19T00:58:25;100123.53;;;24.15;91.22
13709;BME280;54933;51.908;7.730;2023-09-19T01:00:51;100127.09;;;24.16;91.21
13709;BME280;54933;51.908;7.730;2023-09-19T01:03:17;100134.13;;;24.17;90.91
13709;BME280;54933;51.908;7.730;2023-09-19T01:05:43;100139.56;;;24.17;91.09
13709;BME280;54933;51.908;7.730;2023-09-19T01:08:08;100131.44;;;24.17;91.19
13709;BME280;54933;51.908;7.730;2023-09-19T01:10:38;100128.72;;;24.17;91.04
13709;BME280;54933;51.908;7.730;2023-09-19T01:18:48;100139.56;;;24.17;90.97
13709;BME280;54933;51.908;7.730;2023-09-19T01:21:28;100140.41;;;24.17;90.88
13709;BME280;54933;51.908;7.730;2023-09-19T01:27:12;100144.75;;;24.18;90.84
13709;BME280;54933;51.908;7.730;2023-09-19T01:29:45;100149.38;;;24.18;90.94
13709;BME280;54933;51.908;7.730;2023-09-19T01:32:13;100151.00;;;24.19;90.82
13709;BME280;54933;51.908;7.730;2023-09-19T01:37:19;100153.13;;;24.17;90.51
13709;BME280;54933;51.908;7.730;2023-09-19T01:39:50;100154.22;;;24.16;90.31
13709;BME280;54933;51.908;7.730;2023-09-19T01:42:20;100162.38;;;24.16;90.25
13709;BME280;54933;51.908;7.730;2023-09-19T01:47:22;100159.09;;;24.13;90.15
13709;BME280;54933;51.908;7.730;2023-09-19T01:50:13;100163.47;;;24.15;89.71
13709;BME280;54933;51.908;7.730;2023-09-19T01:52:48;100162.63;;;24.14;89.91
13709;BME280;54933;51.908;7.730;2023-09-19T01:55:15;100166.41;;;24.13;89.91
13709;BME280;54933;51.908;7.730;2023-09-19T01:58:01;100169.94;;;24.13;89.61
13709;BME280;54933;51.908;7.730;2023-09-19T02:00:32;100161.78;;;24.13;89.43
13709;BME280;54933;51.908;7.730;2023-09-19T02:02:59;100170.19;;;24.12;89.32
13709;BME280;54933;51.908;7.730;2023-09-19T02:05:25;100165.59;;;24.13;89.38
13709;BME280;54933;51.908;7.730;2023-09-19T02:07:52;100167.47;;;24.12;89.49
13709;BME280;54933;51.908;7.730;2023-09-19T02:10:18;100171.03;;;24.13;89.39
13709;BME280;54933;51.908;7.730;2023-09-19T02:12:44;100168.56;;;24.11;89.00
13709;BME280;54933;51.908;7.730;2023-09-19T02:15:10;100171.03;;;24.13;88.98
13709;BME280;54933;51.908;7.730;2023-09-19T02:17:35;100169.09;;;24.13;88.78
13709;BME280;54933;51.908;7.730;2023-09-19T02:20:00;100164.75;;;24.12;88.92
13709;BME280;54933;51.908;7.730;2023-09-19T02:22:27;100172.66;;;24.13;88.88
13709;BME280;54933;51.908;7.730;2023-09-19T02:24:53;100177.50;;;24.11;88.90
13709;BME280;54933;51.908;7.730;2023-09-19T02:27:19;100185.66;;;24.11;88.73
13709;BME280;54933;51.908;7.730;2023-09-19T02:29:44;100180.22;;;24.11;88.77
13709;BME280;54933;51.908;7.730;2023-09-19T02:32:09;100182.13;;;24.11;88.66
13709;BME280;54933;51.908;7.730;2023-09-19T02:34:36;100185.66;;;24.11;88.48
13709;BME280;54933;51.908;7.730;2023-09-19T02:37:05;100193.53;;;24.13;88.73
13709;BME280;54933;51.908;7.730;2023-09-19T02:39:33;100184.84;;;24.11;88.57
13709;BME280;54933;51.908;7.730;2023-09-19T02:41:59;100188.38;;;24.11;88.49
13709;BME280;54933;51.908;7.730;2023-09-19T02:44:25;100187.00;;;24.09;88.36
13709;BME280;54933;51.908;7.730;2023-09-19T02:46:50;100188.63;;;24.10;88.30
13709;BME280;54933;51.908;7.730;2023-09-19T02:49:16;100193.25;;;24.09;88.39
13709;BME280;54933;51.908;7.730;2023-09-19T02:51:43;100198.44;;;24.11;88.39
13709;BME280;54933;51.908;7.730;2023-09-19T02:54:08;100206.56;;;24.11;88.36
13709;BME280;54933;51.908;7.730;2023-09-19T02:56:34;100201.13;;;24.11;88.33
13709;BME280;54933;51.908;7.730;2023-09-19T02:59:00;100212.78;;;24.11;88.47
13709;BME280;54933;51.908;7.730;2023-09-19T03:01:26;100204.66;;;24.11;88.44
13709;BME280;54933;51.908;7.730;2023-09-19T03:03:53;100204.66;;;24.11;88.37
13709;BME280;54933;51.908;7.730;2023-09-19T03:06:18;100213.63;;;24.12;88.28
13709;BME280;54933;51.908;7.730;2023-09-19T03:08:45;100208.19;;;24.12;88.50
13709;BME280;54933;51.908;7.730;2023-09-19T03:11:12;100209.03;;;24.13;88.48
13709;BME280;54933;51.908;7.730;2023-09-19T03:13:40;100210.66;;;24.13;88.61
13709;BME280;54933;51.908;7.730;2023-09-19T03:16:06;100205.22;;;24.13;88.30
13709;BME280;54933;51.908;7.730;2023-09-19T03:18:34;100203.59;;;24.13;88.23
13709;BME280;54933;51.908;7.730;2023-09-19T03:20:59;100214.47;;;24.13;88.80
13709;BME280;54933;51.908;7.730;2023-09-19T03:23:25;100216.09;;;24.13;88.72
13709;BME280;54933;51.908;7.730;2023-09-19T03:25:52;100218.81;;;24.13;88.67
13709;BME280;54933;51.908;7.730;2023-09-19T03:28:17;100210.66;;;24.13;88.64
13709;BME280;54933;51.908;7.730;2023-09-19T03:30:43;100223.41;;;24.13;88.71
13709;BME280;54933;51.908;7.730;2023-09-19T03:33:08;100220.69;;;24.13;88.79
13709;BME280;54933;51.908;7.730;2023-09-19T03:35:37;100223.41;;;24.13;88.80
13709;BME280;54933;51.908;7.730;2023-09-19T03:38:03;100228.63;;;24.15;88.88
13709;BME280;54933;51.908;7.730;2023-09-19T03:40:29;100221.53;;;24.13;88.67
13709;BME280;54933;51.908;7.730;2023-09-19T03:42:55;100216.09;;;24.13;88.86
13709;BME280;54933;51.908;7.730;2023-09-19T03:45:20;100221.53;;;24.13;88.95
13709;BME280;54933;51.908;7.730;2023-09-19T03:47:45;100220.69;;;24.13;88.80
13709;BME280;54933;51.908;7.730;2023-09-19T03:50:13;100226.13;;;24.13;88.75
13709;BME280;54933;51.908;7.730;2023-09-19T03:52:43;100217.97;;;24.13;88.80
13709;BME280;54933;51.908;7.730;2023-09-19T03:55:08;100223.41;;;24.13;88.22
13709;BME280;54933;51.908;7.730;2023-09-19T03:57:34;100215.25;;;24.13;88.58
13709;BME280;54933;51.908;7.730;2023-09-19T04:00:01;100221.53;;;24.13;88.60
13709;BME280;54933;51.908;7.730;2023-09-19T04:02:26;100221.53;;;24.13;88.67
13709;BME280;54933;51.908;7.730;2023-09-19T04:04:57;100220.41;;;24.09;88.62
13709;BME280;54933;51.908;7.730;2023-09-19T04:07:23;100221.38;;;24.03;88.55
13709;BME280;54933;51.908;7.730;2023-09-19T04:09:49;100225.69;;;23.99;88.92
13709;BME280;54933;51.908;7.730;2023-09-19T04:12:14;100222.38;;;23.97;89.26
13709;BME280;54933;51.908;7.730;2023-09-19T04:14:42;100228.88;;;23.96;89.57
13709;BME280;54933;51.908;7.730;2023-09-19T04:17:07;100226.16;;;23.96;89.70
13709;BME280;54933;51.908;7.730;2023-09-19T04:19:32;100232.38;;;23.97;89.89
13709;BME280;54933;51.908;7.730;2023-09-19T04:21:58;100233.72;;;23.94;90.00
13709;BME280;54933;51.908;7.730;2023-09-19T04:24:23;100235.84;;;23.92;90.32
13709;BME280;54933;51.908;7.730;2023-09-19T04:26:49;100238.81;;;23.91;90.23
13709;BME280;54933;51.908;7.730;2023-09-19T04:29:14;100239.13;;;23.94;90.37
13709;BME280;54933;51.908;7.730;2023-09-19T04:31:40;100244.09;;;23.97;90.32
13709;BME280;54933;51.908;7.730;2023-09-19T04:34:06;100254.44;;;24.00;90.26
13709;BME280;54933;51.908;7.730;2023-09-19T04:36:31;100248.19;;;24.00;90.23
13709;BME280;54933;51.908;7.730;2023-09-19T04:38:57;100249.03;;;24.00;90.05
13709;BME280;54933;51.908;7.730;2023-09-19T04:41:22;100252.31;;;24.02;90.20
13709;BME280;54933;51.908;7.730;2023-09-19T04:43:48;100251.72;;;24.00;89.60
13709;BME280;54933;51.908;7.730;2023-09-19T04:46:16;100255.28;;;24.01;89.94
13709;BME280;54933;51.908;7.730;2023-09-19T04:48:42;100256.91;;;24.02;89.68
13709;BME280;54933;51.908;7.730;2023-09-19T04:51:08;100258.56;;;24.03;89.66
13709;BME280;54933;51.908;7.730;2023-09-19T04:53:33;100265.31;;;24.00;89.67
13709;BME280;54933;51.908;7.730;2023-09-19T04:55:58;100269.69;;;24.01;89.46
13709;BME280;54933;51.908;7.730;2023-09-19T04:58:24;100252.81;;;23.99;89.29
13709;BME280;54933;51.908;7.730;2023-09-19T05:00:49;100259.88;;;24.00;89.49
13709;BME280;54933;51.908;7.730;2023-09-19T05:03:16;100258.31;;;24.04;89.48
13709;BME280;54933;51.908;7.730;2023-09-19T05:05:42;100263.97;;;23.86;87.49
13709;BME280;54933;51.908;7.730;2023-09-19T05:08:08;100269.06;;;23.83;87.76
13709;BME280;54933;51.908;7.730;2023-09-19T05:10:34;100267.56;;;23.92;87.55
13709;BME280;54933;51.908;7.730;2023-09-19T05:13:03;100273.03;;;23.75;82.90
13709;BME280;54933;51.908;7.730;2023-09-19T05:15:29;100293.31;;;23.56;79.53
13709;BME280;54933;51.908;7.730;2023-09-19T05:17:55;100298.91;;;23.66;79.00
13709;BME280;54933;51.908;7.730;2023-09-19T05:20:20;100308.06;;;23.77;79.61
13709;BME280;54933;51.908;7.730;2023-09-19T05:23:06;100310.03;;;23.81;80.28
13709;BME280;54933;51.908;7.730;2023-09-19T05:25:37;100308.69;;;23.84;80.50
13709;BME280;54933;51.908;7.730;2023-09-19T05:28:08;100316.28;;;23.82;80.76
13709;BME280;54933;51.908;7.730;2023-09-19T05:30:34;100315.94;;;23.78;77.57
13709;BME280;54933;51.908;7.730;2023-09-19T05:33:01;100321.88;;;23.75;71.98
13709;BME280;54933;51.908;7.730;2023-09-19T05:35:27;100331.19;;;23.51;70.34
13709;BME280;54933;51.908;7.730;2023-09-19T05:37:53;100336.72;;;23.56;70.10
13709;BME280;54933;51.908;7.730;2023-09-19T05:40:19;100334.69;;;23.63;70.67
13709;BME280;54933;51.908;7.730;2023-09-19T05:42:45;100330.38;;;23.67;71.70
13709;BME280;54933;51.908;7.730;2023-09-19T05:45:11;100332.06;;;23.68;72.28
13709;BME280;54933;51.908;7.730;2023-09-19T05:47:38;100325.31;;;23.71;73.34
13709;BME280;54933;51.908;7.730;2023-09-19T05:50:05;100326.13;;;23.71;74.61
13709;BME280;54933;51.908;7.730;2023-09-19T05:52:32;100325.88;;;23.73;75.38
13709;BME280;54933;51.908;7.730;2023-09-19T05:54:58;100325.63;;;23.74;76.02
13709;BME280;54933;51.908;7.730;2023-09-19T05:57:23;100331.66;;;23.76;76.93
13709;BME280;54933;51.908;7.730;2023-09-19T05:59:50;100318.09;;;23.76;77.60
13709;BME280;54933;51.908;7.730;2023-09-19T06:02:15;100325.16;;;23.77;78.04
13709;BME280;54933;51.908;7.730;2023-09-19T06:04:41;100314.28;;;23.77;77.66
13709;BME280;54933;51.908;7.730;2023-09-19T06:07:06;100323.50;;;23.76;78.01
13709;BME280;54933;51.908;7.730;2023-09-19T06:09:31;100325.16;;;23.77;78.21
13709;BME280;54933;51.908;7.730;2023-09-19T06:11:57;100327.06;;;23.77;78.67
13709;BME280;54933;51.908;7.730;2023-09-19T06:14:22;100321.38;;;23.78;79.01
13709;BME280;54933;51.908;7.730;2023-09-19T06:16:49;100324.91;;;23.79;79.20
13709;BME280;54933;51.908;7.730;2023-09-19T06:19:15;100331.75;;;23.81;79.59
13709;BME280;54933;51.908;7.730;2023-09-19T06:21:40;100331.75;;;23.81;79.76
13709;BME280;54933;51.908;7.730;2023-09-19T06:24:06;100336.34;;;23.81;80.00
13709;BME280;54933;51.908;7.730;2023-09-19T06:26:31;100326.31;;;23.81;80.23
13709;BME280;54933;51.908;7.730;2023-09-19T06:28:57;100335.03;;;23.83;80.60
13709;BME280;54933;51.908;7.730;2023-09-19T06:31:23;100326.06;;;23.83;80.68
13709;BME280;54933;51.908;7.730;2023-09-19T06:33:51;100328.53;;;23.84;80.90
13709;BME280;54933;51.908;7.730;2023-09-19T06:36:17;100332.06;;;23.85;81.07
13709;BME280;54933;51.908;7.730;2023-09-19T06:38:42;100328.28;;;23.86;81.17
13709;BME280;54933;51.908;7.730;2023-09-19T06:41:08;100331.81;;;23.86;80.88
13709;BME280;54933;51.908;7.730;2023-09-19T06:43:34;100323.69;;;23.86;81.26
13709;BME280;54933;51.908;7.730;2023-09-19T06:46:00;100329.09;;;23.86;81.47
13709;BME280;54933;51.908;7.730;2023-09-19T06:48:26;100329.09;;;23.86;81.76
13709;BME280;54933;51.908;7.730;2023-09-19T06:50:58;100325.81;;;23.84;81.65
13709;BME280;54933;51.908;7.730;2023-09-19T06:53:29;100342.09;;;23.84;81.97
13709;BME280;54933;51.908;7.730;2023-09-19T06:55:57;100338.78;;;23.82;82.27
13709;BME280;54933;51.908;7.730;2023-09-19T06:58:22;100338.00;;;23.82;82.49
13709;BME280;54933;51.908;7.730;2023-09-19T07:00:47;100339.63;;;23.83;82.46
13709;BME280;54933;51.908;7.730;2023-09-19T07:03:13;100344.22;;;23.82;82.62
13709;BME280;54933;51.908;7.730;2023-09-19T07:05:39;100351.31;;;23.83;82.94
13709;BME280;54933;51.908;7.730;2023-09-19T07:08:09;100352.13;;;23.84;82.91
13709;BME280;54933;51.908;7.730;2023-09-19T07:10:37;100360.00;;;23.85;83.04
13709;BME280;54933;51.908;7.730;2023-09-19T07:13:04;100356.25;;;23.86;83.17
13709;BME280;54933;51.908;7.730;2023-09-19T07:15:32;100360.84;;;23.86;83.19
13709;BME280;54933;51.908;7.730;2023-09-19T07:18:01;100368.97;;;23.86;83.36
13709;BME280;54933;51.908;7.730;2023-09-19T07:20:26;100373.34;;;23.87;83.38
13709;BME280;54933;51.908;7.730;2023-09-19T07:22:52;100374.16;;;23.87;83.66
13709;BME280;54933;51.908;7.730;2023-09-19T07:25:20;100379.34;;;23.89;84.00
13709;BME280;54933;51.908;7.730;2023-09-19T07:27:45;100374.75;;;23.89;83.72
13709;BME280;54933;51.908;7.730;2023-09-19T07:30:11;100375.59;;;23.90;83.84
13709;BME280;54933;51.908;7.730;2023-09-19T07:32:37;100378.28;;;23.90;83.74
13709;BME280;54933;51.908;7.730;2023-09-19T07:35:03;100372.88;;;23.90;83.95
13709;BME280;54933;51.908;7.730;2023-09-19T07:37:30;100373.66;;;23.90;83.90
13709;BME280;54933;51.908;7.730;2023-09-19T07:40:00;100373.66;;;23.90;84.16
13709;BME280;54933;51.908;7.730;2023-09-19T07:42:26;100374.50;;;23.91;83.98
13709;BME280;54933;51.908;7.730;2023-09-19T07:44:52;100380.75;;;23.91;83.74
13709;BME280;54933;51.908;7.730;2023-09-19T07:47:19;100371.53;;;23.92;84.20
13709;BME280;54933;51.908;7.730;2023-09-19T07:49:47;100372.38;;;23.93;84.01
13709;BME280;54933;51.908;7.730;2023-09-19T07:52:12;100369.41;;;23.94;84.29
13709;BME280;54933;51.908;7.730;2023-09-19T07:54:38;100367.75;;;23.93;84.26
13709;BME280;54933;51.908;7.730;2023-09-19T07:57:04;100366.69;;;23.94;84.38
13709;BME280;54933;51.908;7.730;2023-09-19T07:59:29;100362.91;;;23.95;84.41
13709;BME280;54933;51.908;7.730;2023-09-19T08:01:54;100376.47;;;23.95;84.66
13709;BME280;54933;51.908;7.730;2023-09-19T08:04:20;100368.94;;;23.97;84.31
13709;BME280;54933;51.908;7.730;2023-09-19T08:06:45;100377.09;;;23.97;84.66
13709;BME280;54933;51.908;7.730;2023-09-19T08:09:11;100379.81;;;23.97;84.37
13709;BME280;54933;51.908;7.730;2023-09-19T08:11:37;100383.34;;;23.98;84.51
13709;BME280;54933;51.908;7.730;2023-09-19T08:14:04;100379.56;;;23.99;84.20
13709;BME280;54933;51.908;7.730;2023-09-19T08:16:30;100386.06;;;23.98;84.58
13709;BME280;54933;51.908;7.730;2023-09-19T08:18:56;100390.53;;;23.92;84.76
13709;BME280;54933;51.908;7.730;2023-09-19T08:21:22;100386.69;;;23.88;84.93
13709;BME280;54933;51.908;7.730;2023-09-19T08:23:48;100390.44;;;23.87;85.02
13709;BME280;54933;51.908;7.730;2023-09-19T08:26:14;100399.66;;;23.86;85.15
13709;BME280;54933;51.908;7.730;2023-09-19T08:28:39;100399.66;;;23.86;85.45
13709;BME280;54933;51.908;7.730;2023-09-19T08:31:07;100405.91;;;23.87;85.39
13709;BME280;54933;51.908;7.730;2023-09-19T08:33:36;100411.09;;;23.88;85.35
13709;BME280;54933;51.908;7.730;2023-09-19T08:36:05;100406.72;;;23.87;85.36
13709;BME280;54933;51.908;7.730;2023-09-19T08:38:33;100401.31;;;23.87;85.62
13709;BME280;54933;51.908;7.730;2023-09-19T08:40:59;100408.41;;;23.88;85.48
13709;BME280;54933;51.908;7.730;2023-09-19T08:43:28;100415.69;;;23.88;85.52
13709;BME280;54933;51.908;7.730;2023-09-19T08:48:31;100419.81;;;23.90;85.71
13709;BME280;54933;51.908;7.730;2023-09-19T08:51:10;100408.69;;;23.92;85.50
13709;BME280;54933;51.908;7.730;2023-09-19T08:54:07;100410.03;;;23.89;85.75
13709;BME280;54933;51.908;7.730;2023-09-19T08:56:33;100407.91;;;23.91;85.71
13709;BME280;54933;51.908;7.730;2023-09-19T08:59:05;100414.97;;;23.92;85.60
13709;BME280;54933;51.908;7.730;2023-09-19T09:01:33;100414.13;;;23.92;85.73
13709;BME280;54933;51.908;7.730;2023-09-19T09:03:59;100426.66;;;23.93;85.68
13709;BME280;54933;51.908;7.730;2023-09-19T09:06:26;100429.13;;;23.94;85.71
13709;BME280;54933;51.908;7.730;2023-09-19T09:08:53;100424.75;;;23.93;85.64
13709;BME280;54933;51.908;7.730;2023-09-19T09:11:19;100418.25;;;23.94;85.77
13709;BME280;54933;51.908;7.730;2023-09-19T09:13:45;100419.09;;;23.95;85.50
13709;BME280;54933;51.908;7.730;2023-09-19T09:16:11;100418.25;;;23.94;85.40
13709;BME280;54933;51.908;7.730;2023-09-19T09:18:37;100406.31;;;23.95;85.41
13709;BME280;54933;51.908;7.730;2023-09-19T09:21:03;100411.75;;;23.95;85.40
13709;BME280;54933;51.908;7.730;2023-09-19T09:23:30;100418.84;;;23.96;85.33
13709;BME280;54933;51.908;7.730;2023-09-19T09:25:57;100402.56;;;23.96;84.97
13709;BME280;54933;51.908;7.730;2023-09-19T09:28:26;100406.06;;;23.97;84.89
13709;BME280;54933;51.908;7.730;2023-09-19T09:30:53;100399.63;;;23.98;84.97
13709;BME280;54933;51.908;7.730;2023-09-19T09:33:19;100401.50;;;23.97;84.82
13709;BME280;54933;51.908;7.730;2023-09-19T09:35:56;100396.09;;;23.97;84.77
13709;BME280;54933;51.908;7.730;2023-09-19T09:38:26;100400.44;;;23.98;84.75
13709;BME280;54933;51.908;7.730;2023-09-19T09:40:58;100399.63;;;23.98;84.80
13709;BME280;54933;51.908;7.730;2023-09-19T09:43:36;100396.66;;;23.99;84.78
13709;BME280;54933;51.908;7.730;2023-09-19T09:46:20;100386.88;;;23.98;84.67
13709;BME280;54933;51.908;7.730;2023-09-19T09:49:05;100386.88;;;23.98;84.53
13709;BME280;54933;51.908;7.730;2023-09-19T09:51:42;100387.69;;;23.99;84.59
13709;BME280;54933;51.908;7.730;2023-09-19T09:54:15;100403.97;;;23.99;84.69
13709;BME280;54933;51.908;7.730;2023-09-19T09:56:58;100395.59;;;24.00;84.35
13709;BME280;54933;51.908;7.730;2023-09-19T09:59:50;100398.31;;;24.00;84.38
13709;BME280;54933;51.908;7.730;2023-09-19T10:02:17;100395.59;;;24.00;84.38
13709;BME280;54933;51.908;7.730;2023-09-19T10:04:50;100402.91;;;24.00;84.49
13709;BME280;54933;51.908;7.730;2023-09-19T10:07:35;100401.03;;;24.00;84.34
13709;BME280;54933;51.908;7.730;2023-09-19T10:10:04;100398.31;;;24.00;84.33
13709;BME280;54933;51.908;7.730;2023-09-19T10:12:38;100395.34;;;24.02;84.24
13709;BME280;54933;51.908;7.730;2023-09-19T10:15:08;100397.25;;;24.01;84.49
13709;BME280;54933;51.908;7.730;2023-09-19T10:17:36;100392.88;;;24.00;84.22
13709;BME280;54933;51.908;7.730;2023-09-19T10:20:02;100394.19;;;23.98;84.51
13709;BME280;54933;51.908;7.730;2023-09-19T10:22:35;100399.25;;;23.94;84.68
13709;BME280;54933;51.908;7.730;2023-09-19T10:25:04;100396.56;;;23.94;84.90
13709;BME280;54933;51.908;7.730;2023-09-19T10:27:30;100397.59;;;23.93;84.96
13709;BME280;54933;51.908;7.730;2023-09-19T10:30:04;100396.56;;;23.94;85.25
13709;BME280;54933;51.908;7.730;2023-09-19T10:32:34;100392.16;;;23.93;85.35
13709;BME280;54933;51.908;7.730;2023-09-19T10:35:01;100393.25;;;23.92;85.46
13709;BME280;54933;51.908;7.730;2023-09-19T10:37:27;100385.09;;;23.92;85.66
13709;BME280;54933;51.908;7.730;2023-09-19T10:39:54;100382.41;;;23.92;85.76
13709;BME280;54933;51.908;7.730;2023-09-19T10:42:22;100386.75;;;23.93;85.95
13709;BME280;54933;51.908;7.730;2023-09-19T10:44:52;100383.22;;;23.93;85.86
13709;BME280;54933;51.908;7.730;2023-09-19T10:47:20;100377.81;;;23.93;85.98
13709;BME280;54933;51.908;7.730;2023-09-19T10:49:49;100379.44;;;23.94;86.02
13709;BME280;54933;51.908;7.730;2023-09-19T10:52:18;100377.56;;;23.94;85.98
13709;BME280;54933;51.908;7.730;2023-09-19T10:54:48;100387.31;;;23.95;86.06
13709;BME280;54933;51.908;7.730;2023-09-19T10:57:23;100375.66;;;23.95;85.84
13709;BME280;54933;51.908;7.730;2023-09-19T11:00:06;100375.22;;;23.98;85.84
13709;BME280;54933;51.908;7.730;2023-09-19T11:05:39;100373.28;;;23.98;86.07
13709;BME280;54933;51.908;7.730;2023-09-19T11:08:05;100373.03;;;24.00;86.19
13709;BME280;54933;51.908;7.730;2023-09-19T11:10:48;100367.63;;;24.00;85.97
13709;BME280;54933;51.908;7.730;2023-09-19T11:13:42;100365.72;;;24.00;86.00
13709;BME280;54933;51.908;7.730;2023-09-19T11:16:18;100357.34;;;24.02;86.15
13709;BME280;54933;51.908;7.730;2023-09-19T11:26:45;100386.94;;;24.03;86.04
13709;BME280;54933;51.908;7.730;2023-09-19T11:29:31;100384.25;;;24.03;86.17
13709;BME280;54933;51.908;7.730;2023-09-19T11:31:59;100380.47;;;24.04;86.14
13709;BME280;54933;51.908;7.730;2023-09-19T11:40:05;100378.31;;;24.06;86.10
13709;BME280;54933;51.908;7.730;2023-09-19T11:42:44;100366.66;;;24.06;85.94
13709;BME280;54933;51.908;7.730;2023-09-19T11:48:05;100365.72;;;24.00;86.18
13709;BME280;54933;51.908;7.730;2023-09-19T11:50:32;100363.03;;;24.00;86.04
13709;BME280;54933;51.908;7.730;2023-09-19T11:52:58;100363.03;;;24.00;86.24
13709;BME280;54933;51.908;7.730;2023-09-19T11:55:25;100366.81;;;23.99;86.33
13709;BME280;54933;51.908;7.730;2023-09-19T11:57:54;100355.97;;;23.99;86.55
13709;BME280;54933;51.908;7.730;2023-09-19T12:00:20;100358.44;;;24.01;86.20
13709;BME280;54933;51.908;7.730;2023-09-19T12:02:47;100359.25;;;24.01;86.25
13709;BME280;54933;51.908;7.730;2023-09-19T12:05:17;100360.88;;;24.02;86.52
13709;BME280;54933;51.908;7.730;2023-09-19T12:07:44;100351.13;;;24.01;86.45
13709;BME280;54933;51.908;7.730;2023-09-19T12:10:13;100346.25;;;24.03;86.46
13709;BME280;54933;51.908;7.730;2023-09-19T12:12:39;100344.34;;;24.04;86.49
13709;BME280;54933;51.908;7.730;2023-09-19T12:15:05;100346.25;;;24.03;86.63
13709;BME280;54933;51.908;7.730;2023-09-19T12:17:38;100352.50;;;24.04;86.57
13709;BME280;54933;51.908;7.730;2023-09-19T12:20:08;100350.63;;;24.04;86.54
13709;BME280;54933;51.908;7.730;2023-09-19T12:22:45;100351.66;;;24.03;86.55
13709;BME280;54933;51.908;7.730;2023-09-19T12:25:15;100348.41;;;24.01;86.58
13709;BME280;54933;51.908;7.730;2023-09-19T12:27:49;100350.28;;;24.01;86.54
13709;BME280;54933;51.908;7.730;2023-09-19T12:30:18;100343.19;;;24.00;86.69
13709;BME280;54933;51.908;7.730;2023-09-19T12:32:45;100344.03;;;24.00;86.63
13709;BME280;54933;51.908;7.730;2023-09-19T12:35:27;100335.88;;;24.00;86.54
13709;BME280;54933;51.908;7.730;2023-09-19T12:37:53;100341.31;;;24.00;86.49
13709;BME280;54933;51.908;7.730;2023-09-19T12:40:21;100332.13;;;24.01;86.50
13709;BME280;54933;51.908;7.730;2023-09-19T12:42:48;100337.53;;;24.01;85.98
13709;BME280;54933;51.908;7.730;2023-09-19T12:45:14;100326.69;;;24.01;86.44
13709;BME280;54933;51.908;7.730;2023-09-19T12:48:18;100315.81;;;24.01;86.25
13709;BME280;54933;51.908;7.730;2023-09-19T12:51:09;100312.03;;;24.02;86.14
13709;BME280;54933;51.908;7.730;2023-09-19T12:53:45;100317.47;;;24.02;86.06
13709;BME280;54933;51.908;7.730;2023-09-19T12:56:15;100319.09;;;24.03;86.08
13709;BME280;54933;51.908;7.730;2023-09-19T13:01:15;100327.22;;;24.03;86.05
13709;BME280;54933;51.908;7.730;2023-09-19T13:03:41;100329.94;;;24.03;85.78
13709;BME280;54933;51.908;7.730;2023-09-19T13:06:07;100328.31;;;24.02;85.51
13709;BME280;54933;51.908;7.730;2023-09-19T13:08:37;100349.78;;;24.04;85.33
13709;BME280;54933;51.908;7.730;2023-09-19T13:16:19;100328.81;;;23.99;83.72
13709;BME280;54933;51.908;7.730;2023-09-19T13:18:49;100344.66;;;23.91;83.11
13709;BME280;54933;51.908;7.730;2023-09-19T13:21:30;100324.47;;;23.87;82.90
13709;BME280;54933;51.908;7.730;2023-09-19T13:24:21;100325.31;;;23.87;83.07
13709;BME280;54933;51.908;7.730;2023-09-19T13:26:47;100331.56;;;23.88;83.10
13709;BME280;54933;51.908;7.730;2023-09-19T13:29:13;100321.56;;;23.88;83.26
13709;BME280;54933;51.908;7.730;2023-09-19T13:31:45;100314.47;;;23.87;83.35
13709;BME280;54933;51.908;7.730;2023-09-19T13:34:11;100332.16;;;23.90;83.29
13709;BME280;54933;51.908;7.730;2023-09-19T13:36:36;100313.97;;;23.90;83.41
13709;BME280;54933;51.908;7.730;2023-09-19T13:39:02;100307.72;;;23.90;83.49
13709;BME280;54933;51.908;7.730;2023-09-19T13:41:27;100312.34;;;23.89;83.71